Uigi, Mongolia
Current Conditions -  °F | °C
As of 5:30 AM on Wednesday 22 Oct 2014 (Local Time) from UNAA Reporting Station
Overcast Overcast  
Wind Chill: 28°   Ceiling: 10000
Heat Index: 37°   Visibility: 6mi
Dew Point: 27°   Wind: 16mph
Humidity: 65%   Direction: 220°SW
Pressure: 30.15"   Gusts: NA
Location:  48.93°N, 89.93°E
Report Text: UNAA 212130Z 22007MPS 9999 SCT030CB OVC100 03/M03 Q1021 NOSIGRMK QFE743 20190060
Loading
Personal Weather Stations






























Interactive Weather Map
Tropical Storm Tracking
New forecast layout! Learn more

10-Day Weather Forecast

Advertisements
Track Severe Weather on mobile